»·PEaware :: SWA1703 KLAS-KPHX

SWA1703 :: KLAS-KPHX

FLIGHT INFORMATION

Flight Status: Arrived
Operator:
Southwest Airlines
More flights by this operator :: More flights under this callsign
Pilot: Mark D. (12)
Aircraft: BOEING 737-700
(B737)
More flights by this aircraft type
Origin: KLAS McCarran Intl
United States
Destination: KPHX Phoenix Sky Harbor Intl
United States
More flights between these airports :: More routes between these airports
Route: COWBY8 COWBY TENTS BRUSR1
File this flight plan on PilotEdge
Remarks: WWW.PILOTCENTRAL.ORG / PBN / A1B1C1D1S1S2 NAV / RNVD1E2A1 REG / N708SW EET / KZAB0021 RMK / SIMBRIEF
Altitude:
(Current/Filed)
29,000ft
Speed:
(Current/Filed)
437kts
Departed: 25-Apr-18 12:59 PM
Arrived: 25-Apr-18 01:43 PM
Distance/Time
Traveled:
222nm/0:44
Distance/Time
To Go:
Arrived

Flight Plot

Page will automatically refresh every two minutes.

Flight plan parsing failed; only flown route is shown


Map Options




Map Legend


Flown Route
Filed Route
Departure Airport
Arrival Airport
Navaid (VOR, NDB)
Fix

Horizontal Profiles

Position Reports

Time Latitude Longitude Heading Altitude Ground
Speed
25-Apr-18 12:23 36.082268 -115.151022 14 2188ft 0kts
25-Apr-18 12:24 36.082268 -115.151022 14 2188ft 0kts
25-Apr-18 12:25 36.082268 -115.151022 14 2188ft 0kts
25-Apr-18 12:26 36.082268 -115.151022 14 2188ft 0kts
25-Apr-18 12:27 36.082268 -115.151022 14 2188ft 0kts
25-Apr-18 12:28 36.082268 -115.151022 14 2188ft 0kts
25-Apr-18 12:29 36.082268 -115.151022 14 2188ft 0kts
25-Apr-18 12:30 36.082268 -115.151022 14 2188ft 0kts
25-Apr-18 12:31 36.082268 -115.151022 14 2188ft 0kts
25-Apr-18 12:32 36.082268 -115.151022 14 2188ft 0kts
25-Apr-18 12:33 36.082268 -115.151022 14 2188ft 0kts
25-Apr-18 12:34 36.082268 -115.151022 14 2188ft 0kts
25-Apr-18 12:35 36.082268 -115.151022 14 2188ft 0kts
25-Apr-18 12:36 36.082268 -115.151022 14 2188ft 0kts
25-Apr-18 12:37 36.082268 -115.151022 14 2188ft 0kts
25-Apr-18 12:38 36.082268 -115.151022 14 2188ft 0kts
25-Apr-18 12:39 36.082268 -115.151022 14 2188ft 0kts
25-Apr-18 12:40 36.082268 -115.151022 14 2188ft 0kts
25-Apr-18 12:41 36.082268 -115.151022 14 2188ft 0kts
25-Apr-18 12:42 36.082268 -115.151022 14 2188ft 0kts
25-Apr-18 12:43 36.082268 -115.151022 14 2188ft 0kts
25-Apr-18 12:44 36.081906 -115.151141 14 2188ft 2kts
25-Apr-18 12:45 36.081679 -115.151216 14 2188ft 0kts
25-Apr-18 12:46 36.081679 -115.151216 14 2188ft 0kts
25-Apr-18 12:47 36.081278 -115.149451 161 2188ft 9kts
25-Apr-18 12:48 36.079194 -115.148197 172 2188ft 0kts
25-Apr-18 12:49 36.079149 -115.148192 176 2188ft 0kts
25-Apr-18 12:50 36.078646 -115.149042 283 2188ft 10kts
25-Apr-18 12:51 36.078017 -115.154687 270 2188ft 17kts
25-Apr-18 12:52 36.078004 -115.161210 271 2188ft 15kts
25-Apr-18 12:53 36.077423 -115.163464 201 2188ft 0kts
25-Apr-18 12:54 36.077422 -115.163465 201 2188ft 0kts
25-Apr-18 12:55 36.077420 -115.163466 201 2188ft 0kts
25-Apr-18 12:56 36.077419 -115.163466 201 2188ft 0kts
25-Apr-18 12:57 36.077417 -115.163467 201 2188ft 0kts
25-Apr-18 12:58 36.076403 -115.158965 90 2189ft 82kts
25-Apr-18 12:59 36.077067 -115.105304 88 3828ft 176kts
25-Apr-18 13:00 36.076302 -115.034220 90 5613ft 249kts
25-Apr-18 13:01 36.074171 -114.938880 97 7428ft 287kts
25-Apr-18 13:02 36.060388 -114.840420 100 11135ft 306kts
25-Apr-18 13:03 36.043713 -114.724308 100 13340ft 367kts
25-Apr-18 13:04 36.025297 -114.596508 99 16559ft 387kts
25-Apr-18 13:05 36.005872 -114.462107 99 18993ft 407kts
25-Apr-18 13:06 35.985584 -114.322812 100 20642ft 416kts
25-Apr-18 13:07 35.964952 -114.179084 100 23089ft 435kts
25-Apr-18 13:08 35.942882 -114.029677 100 25203ft 451kts
25-Apr-18 13:09 35.916440 -113.876317 108 27394ft 456kts
25-Apr-18 13:10 35.872964 -113.727676 111 29091ft 468kts
25-Apr-18 13:11 35.828425 -113.577011 111 29163ft 475kts
25-Apr-18 13:12 35.782191 -113.419618 110 29198ft 493kts
25-Apr-18 13:13 35.735575 -113.261524 110 29225ft 492kts
25-Apr-18 13:14 35.688409 -113.103012 110 29248ft 493kts
25-Apr-18 13:15 35.641089 -112.944774 110 29272ft 493kts
25-Apr-18 13:16 35.593691 -112.786701 110 29292ft 494kts
25-Apr-18 13:17 35.545771 -112.628193 110 29304ft 494kts
25-Apr-18 13:18 35.485717 -112.478948 137 29304ft 489kts
25-Apr-18 13:19 35.363111 -112.423931 176 29310ft 474kts
25-Apr-18 13:20 35.234633 -112.401367 174 29302ft 457kts
25-Apr-18 13:21 35.112787 -112.375775 173 28220ft 436kts
25-Apr-18 13:22 34.994418 -112.350062 172 26605ft 426kts
25-Apr-18 13:23 34.879427 -112.325225 172 25393ft 413kts
25-Apr-18 13:24 34.773061 -112.301876 172 25334ft 361kts
25-Apr-18 13:25 34.677759 -112.280869 172 23601ft 362kts
25-Apr-18 13:26 34.572963 -112.257911 171 20894ft 384kts
25-Apr-18 13:27 34.467452 -112.234879 171 19495ft 384kts
25-Apr-18 13:28 34.364529 -112.209155 169 18056ft 368kts
25-Apr-18 13:29 34.266231 -112.183567 169 16651ft 357kts
25-Apr-18 13:30 34.169831 -112.158649 168 15130ft 348kts
25-Apr-18 13:31 34.078166 -112.134449 165 14026ft 320kts
25-Apr-18 13:32 33.995767 -112.100600 161 12581ft 309kts
25-Apr-18 13:33 33.914916 -112.067444 161 11410ft 303kts
25-Apr-18 13:34 33.835596 -112.035214 161 10210ft 296kts
25-Apr-18 13:35 33.759865 -112.004539 161 9039ft 283kts
25-Apr-18 13:36 33.685517 -111.974492 161 8303ft 279kts
25-Apr-18 13:37 33.610934 -111.944578 162 6544ft 285kts
25-Apr-18 13:38 33.538342 -111.918027 162 5538ft 257kts
25-Apr-18 13:39 33.470603 -111.895586 170 3776ft 234kts
25-Apr-18 13:40 33.427117 -111.922527 265 2467ft 185kts
25-Apr-18 13:41 33.428652 -111.979215 270 1504ft 150kts
25-Apr-18 13:42 33.429070 -112.016548 326 1143ft 17kts
25-Apr-18 13:43 33.431396 -112.015766 357 1143ft 19kts
25-Apr-18 13:44 33.432841 -112.011672 92 1143ft 20kts
25-Apr-18 13:45 33.432878 -112.002448 88 1143ft 30kts
25-Apr-18 13:46 33.433375 -111.996446 2 1143ft 4kts
25-Apr-18 13:47 33.433455 -111.996445 359 1143ft 0kts

Navigation Log

Ident Type
Flight plan parsing failed, navigation log unavailable